createdAt,value
2017-08-14T00:00:01.854Z,17.87
2017-08-14T00:00:42.434Z,17.8
2017-08-14T00:01:23.004Z,17.82
2017-08-14T00:02:03.574Z,17.83
2017-08-14T00:02:44.135Z,17.85
2017-08-14T00:03:24.713Z,17.8
2017-08-14T00:04:05.288Z,17.85
2017-08-14T00:04:45.852Z,17.89
2017-08-14T00:05:26.424Z,17.83
2017-08-14T00:06:06.991Z,17.78
2017-08-14T00:06:47.602Z,17.79
2017-08-14T00:07:28.203Z,17.8
2017-08-14T00:08:08.780Z,17.76
2017-08-14T00:08:49.350Z,17.72
2017-08-14T00:09:29.917Z,17.72
2017-08-14T00:10:10.518Z,17.8
2017-08-14T00:10:51.084Z,17.76
2017-08-14T00:11:31.667Z,17.72
2017-08-14T00:12:12.238Z,17.78
2017-08-14T00:12:52.820Z,17.76
2017-08-14T00:13:33.389Z,17.79
2017-08-14T00:14:13.966Z,17.72
2017-08-14T00:14:54.525Z,17.71
2017-08-14T00:15:35.111Z,17.78
2017-08-14T00:16:15.677Z,17.65
2017-08-14T00:16:56.254Z,17.71
2017-08-14T00:17:36.813Z,17.74
2017-08-14T00:18:17.392Z,17.6
2017-08-14T00:18:57.981Z,17.63
2017-08-14T00:19:38.554Z,17.59
2017-08-14T00:20:19.129Z,17.68
2017-08-14T00:20:59.705Z,17.57
2017-08-14T00:21:40.296Z,17.7
2017-08-14T00:22:20.859Z,17.6
2017-08-14T00:23:01.423Z,17.59
2017-08-14T00:23:42.003Z,17.54
2017-08-14T00:24:22.579Z,17.59
2017-08-14T00:25:03.168Z,17.64
2017-08-14T00:25:43.730Z,17.59
2017-08-14T00:26:24.315Z,17.59
2017-08-14T00:27:04.896Z,17.63
2017-08-14T00:27:45.466Z,17.64
2017-08-14T00:28:26.064Z,17.63
2017-08-14T00:29:09.150Z,17.68
2017-08-14T00:29:49.721Z,17.59
2017-08-14T00:30:30.291Z,17.65
2017-08-14T00:31:10.890Z,17.67
2017-08-14T00:31:51.465Z,17.54
2017-08-14T00:32:32.054Z,17.64
2017-08-14T00:33:12.642Z,17.56
2017-08-14T00:33:53.224Z,17.64
2017-08-14T00:34:33.824Z,17.6
2017-08-14T00:35:14.422Z,17.65
2017-08-14T00:35:54.983Z,17.63
2017-08-14T00:36:35.589Z,17.67
2017-08-14T00:37:16.172Z,17.64
2017-08-14T00:37:56.808Z,17.59
2017-08-14T00:38:37.422Z,17.64
2017-08-14T00:39:18.012Z,17.63
2017-08-14T00:39:58.599Z,17.64
2017-08-14T00:40:39.183Z,17.57
2017-08-14T00:41:19.780Z,17.64
2017-08-14T00:42:00.374Z,17.6
2017-08-14T00:42:40.957Z,17.64
2017-08-14T00:43:21.537Z,17.6
2017-08-14T00:44:02.126Z,17.57
2017-08-14T00:44:42.699Z,17.57
2017-08-14T00:45:23.271Z,17.64
2017-08-14T00:46:03.842Z,17.54
2017-08-14T00:46:44.420Z,17.56
2017-08-14T00:47:24.987Z,17.59
2017-08-14T00:48:05.567Z,17.57
2017-08-14T00:48:46.156Z,17.54
2017-08-14T00:49:26.731Z,17.49
2017-08-14T00:50:07.323Z,17.44
2017-08-14T00:50:47.879Z,17.49
2017-08-14T00:51:28.462Z,17.44
2017-08-14T00:52:09.069Z,17.45
2017-08-14T00:52:49.655Z,17.45
2017-08-14T00:53:30.247Z,17.45
2017-08-14T00:54:10.844Z,17.46
2017-08-14T00:54:51.415Z,17.46
2017-08-14T00:55:31.982Z,17.46
2017-08-14T00:56:12.549Z,17.46
2017-08-14T00:56:53.138Z,17.46
2017-08-14T00:57:33.738Z,17.45
2017-08-14T00:58:14.306Z,17.45
2017-08-14T00:58:54.874Z,17.46
2017-08-14T00:59:35.449Z,17.49
2017-08-14T01:00:16.032Z,17.45
2017-08-14T01:00:56.624Z,17.48
2017-08-14T01:01:37.202Z,17.41
2017-08-14T01:02:17.764Z,17.48
2017-08-14T01:02:58.330Z,17.45
2017-08-14T01:03:38.923Z,17.42
2017-08-14T01:04:19.504Z,17.41
2017-08-14T01:05:00.097Z,17.46
2017-08-14T01:05:40.676Z,17.44
2017-08-14T01:06:21.254Z,17.48
2017-08-14T01:07:01.855Z,17.41
2017-08-14T01:07:42.429Z,17.41
2017-08-14T01:08:23.015Z,17.44
2017-08-14T01:09:03.588Z,17.39
2017-08-14T01:09:44.148Z,17.38
2017-08-14T01:10:24.721Z,17.45
2017-08-14T01:11:05.309Z,17.46
2017-08-14T01:11:45.872Z,17.41
2017-08-14T01:12:26.460Z,17.44
2017-08-14T01:13:07.043Z,17.42
2017-08-14T01:13:47.613Z,17.42
2017-08-14T01:14:28.192Z,17.45
2017-08-14T01:15:08.764Z,17.45
2017-08-14T01:15:49.335Z,17.45
2017-08-14T01:16:29.914Z,17.46
2017-08-14T01:17:10.504Z,17.44
2017-08-14T01:17:51.094Z,17.42
2017-08-14T01:18:31.657Z,17.46
2017-08-14T01:19:12.225Z,17.51
2017-08-14T01:19:52.787Z,17.51
2017-08-14T01:20:33.380Z,17.46
2017-08-14T01:21:13.945Z,17.49
2017-08-14T01:21:54.536Z,17.46
2017-08-14T01:22:35.092Z,17.46
2017-08-14T01:23:15.673Z,17.52
2017-08-14T01:23:56.252Z,17.49
2017-08-14T01:24:36.797Z,17.41
2017-08-14T01:25:17.355Z,17.51
2017-08-14T01:25:57.923Z,17.41
2017-08-14T01:26:38.495Z,17.49
2017-08-14T01:27:19.071Z,17.48
2017-08-14T01:27:59.652Z,17.44
2017-08-14T01:28:40.224Z,17.42
2017-08-14T01:29:20.798Z,17.42
2017-08-14T01:30:01.391Z,17.48
2017-08-14T01:30:41.967Z,17.45
2017-08-14T01:31:22.536Z,17.41
2017-08-14T01:32:03.136Z,17.41
2017-08-14T01:32:43.734Z,17.38
2017-08-14T01:33:24.314Z,17.45
2017-08-14T01:34:04.883Z,17.42
2017-08-14T01:34:45.452Z,17.42
2017-08-14T01:35:26.031Z,17.39
2017-08-14T01:36:06.593Z,17.41
2017-08-14T01:36:47.172Z,17.36
2017-08-14T01:37:27.740Z,17.42
2017-08-14T01:38:08.304Z,17.34
2017-08-14T01:38:48.898Z,17.42
2017-08-14T01:39:29.489Z,17.38
2017-08-14T01:40:10.075Z,17.42
2017-08-14T01:40:50.651Z,17.36
2017-08-14T01:41:31.224Z,17.34
2017-08-14T01:42:11.805Z,17.36
2017-08-14T01:42:52.371Z,17.36
2017-08-14T01:43:32.938Z,17.31
2017-08-14T01:44:13.529Z,17.3
2017-08-14T01:44:54.114Z,17.31
2017-08-14T01:45:34.695Z,17.38
2017-08-14T01:46:15.296Z,17.31
2017-08-14T01:46:55.875Z,17.39
2017-08-14T01:47:36.447Z,17.33
2017-08-14T01:48:17.011Z,17.3
2017-08-14T01:48:57.582Z,17.33
2017-08-14T01:49:38.157Z,17.36
2017-08-14T01:50:18.742Z,17.31
2017-08-14T01:50:59.315Z,17.34
2017-08-14T01:51:39.875Z,17.31
2017-08-14T01:52:20.441Z,17.36
2017-08-14T01:53:01.003Z,17.39
2017-08-14T01:53:41.596Z,17.39
2017-08-14T01:54:22.177Z,17.38
2017-08-14T01:55:02.767Z,17.44
2017-08-14T01:55:43.342Z,17.36
2017-08-14T01:56:23.951Z,17.36
2017-08-14T01:57:04.560Z,17.41
2017-08-14T01:57:45.146Z,17.41
2017-08-14T01:58:25.726Z,17.33
2017-08-14T01:59:06.292Z,17.3
2017-08-14T01:59:46.870Z,17.36
2017-08-14T02:00:27.439Z,17.23
2017-08-14T02:01:08.022Z,17.29
2017-08-14T02:01:48.574Z,17.22
2017-08-14T02:02:29.167Z,17.26
2017-08-14T02:03:09.766Z,17.27
2017-08-14T02:03:50.318Z,17.31
2017-08-14T02:04:30.925Z,17.3
2017-08-14T02:05:11.510Z,17.23
2017-08-14T02:05:52.072Z,17.16
2017-08-14T02:06:32.642Z,17.24
2017-08-14T02:07:13.217Z,17.23
2017-08-14T02:07:53.806Z,17.23
2017-08-14T02:08:34.370Z,17.26
2017-08-14T02:09:14.946Z,17.2
2017-08-14T02:09:55.532Z,17.19
2017-08-14T02:10:36.123Z,17.22
2017-08-14T02:11:16.681Z,17.2
2017-08-14T02:11:57.250Z,17.27
2017-08-14T02:12:37.825Z,17.31
2017-08-14T02:13:18.395Z,17.26
2017-08-14T02:13:58.995Z,17.23
2017-08-14T02:14:39.581Z,17.29
2017-08-14T02:15:20.148Z,17.19
2017-08-14T02:16:00.721Z,17.24
2017-08-14T02:16:41.301Z,17.31
2017-08-14T02:17:21.870Z,17.27
2017-08-14T02:18:02.433Z,17.34
2017-08-14T02:18:43.011Z,17.38
2017-08-14T02:19:23.583Z,17.27
2017-08-14T02:20:04.153Z,17.39
2017-08-14T02:20:44.716Z,17.26
2017-08-14T02:21:25.291Z,17.34
2017-08-14T02:22:05.854Z,17.3
2017-08-14T02:22:46.428Z,17.26
2017-08-14T02:23:27.007Z,17.33
2017-08-14T02:24:07.600Z,17.34
2017-08-14T02:24:48.162Z,17.31
2017-08-14T02:25:28.734Z,17.31
2017-08-14T02:26:09.301Z,17.41
2017-08-14T02:26:49.864Z,17.27
2017-08-14T02:27:30.452Z,17.31
2017-08-14T02:28:11.041Z,17.27
2017-08-14T02:28:51.628Z,17.31
2017-08-14T02:29:32.204Z,17.34
2017-08-14T02:30:12.783Z,17.36
2017-08-14T02:30:53.365Z,17.41
2017-08-14T02:31:33.953Z,17.34
2017-08-14T02:32:14.532Z,17.34
2017-08-14T02:32:55.127Z,17.34
2017-08-14T02:33:35.689Z,17.33
2017-08-14T02:34:16.280Z,17.36
2017-08-14T02:34:56.857Z,17.31
2017-08-14T02:35:37.419Z,17.33
2017-08-14T02:36:17.989Z,17.36
2017-08-14T02:36:58.568Z,17.34
2017-08-14T02:37:39.158Z,17.34
2017-08-14T02:38:19.723Z,17.36
2017-08-14T02:39:00.295Z,17.29
2017-08-14T02:39:40.882Z,17.38
2017-08-14T02:40:21.471Z,17.33
2017-08-14T02:41:02.020Z,17.31
2017-08-14T02:41:42.604Z,17.27
2017-08-14T02:42:23.171Z,17.34
2017-08-14T02:43:03.748Z,17.42
2017-08-14T02:43:44.314Z,17.31
2017-08-14T02:44:24.889Z,17.33
2017-08-14T02:45:05.464Z,17.39
2017-08-14T02:45:46.028Z,17.33
2017-08-14T02:46:26.602Z,17.3
2017-08-14T02:47:07.169Z,17.29
2017-08-14T02:47:47.770Z,17.34
2017-08-14T02:48:28.369Z,17.29
2017-08-14T02:49:08.946Z,17.31
2017-08-14T02:49:49.517Z,17.29
2017-08-14T02:50:30.087Z,17.34
2017-08-14T02:51:10.683Z,17.38
2017-08-14T02:51:51.274Z,17.31
2017-08-14T02:52:31.869Z,17.36
2017-08-14T02:53:12.435Z,17.24
2017-08-14T02:53:53.010Z,17.31
2017-08-14T02:54:33.578Z,17.33
2017-08-14T02:55:14.152Z,17.24
2017-08-14T02:55:54.724Z,17.31
2017-08-14T02:56:35.317Z,17.3
2017-08-14T02:57:15.928Z,17.36
2017-08-14T02:57:56.497Z,17.36
2017-08-14T02:58:37.065Z,17.3
2017-08-14T02:59:17.635Z,17.39
2017-08-14T02:59:58.230Z,17.39
2017-08-14T03:00:38.811Z,17.33
2017-08-14T03:01:19.386Z,17.44
2017-08-14T03:01:59.967Z,17.33
2017-08-14T03:02:40.539Z,17.31
2017-08-14T03:03:21.107Z,17.36
2017-08-14T03:04:01.682Z,17.27
2017-08-14T03:04:42.264Z,17.38
2017-08-14T03:05:22.839Z,17.3
2017-08-14T03:06:03.405Z,17.34
2017-08-14T03:06:43.982Z,17.33
2017-08-14T03:07:24.599Z,17.39
2017-08-14T03:08:05.162Z,17.39
2017-08-14T03:08:45.736Z,17.34
2017-08-14T03:09:26.328Z,17.39
2017-08-14T03:10:06.901Z,17.3
2017-08-14T03:10:47.466Z,17.34
2017-08-14T03:11:28.044Z,17.33
2017-08-14T03:12:08.627Z,17.33
2017-08-14T03:12:49.208Z,17.36
2017-08-14T03:13:29.799Z,17.38
2017-08-14T03:14:10.376Z,17.31
2017-08-14T03:14:50.938Z,17.41
2017-08-14T03:15:31.504Z,17.38
2017-08-14T03:16:12.096Z,17.38
2017-08-14T03:16:52.654Z,17.39
2017-08-14T03:17:33.266Z,17.36
2017-08-14T03:18:13.835Z,17.39
2017-08-14T03:18:54.398Z,17.34
2017-08-14T03:19:34.989Z,17.38
2017-08-14T03:20:15.614Z,17.38
2017-08-14T03:20:56.187Z,17.3
2017-08-14T03:21:36.754Z,17.41
2017-08-14T03:22:17.359Z,17.41
2017-08-14T03:22:57.954Z,17.36
2017-08-14T03:23:38.566Z,17.34
2017-08-14T03:24:19.140Z,17.36
2017-08-14T03:24:59.721Z,17.33
2017-08-14T03:25:40.297Z,17.34
2017-08-14T03:26:20.863Z,17.39
2017-08-14T03:27:01.439Z,17.33
2017-08-14T03:27:41.994Z,17.39
2017-08-14T03:28:22.589Z,17.34
2017-08-14T03:29:03.168Z,17.31
2017-08-14T03:29:43.748Z,17.38
2017-08-14T03:30:24.334Z,17.39
2017-08-14T03:31:04.917Z,17.39
2017-08-14T03:31:45.499Z,17.36
2017-08-14T03:32:26.068Z,17.41
2017-08-14T03:33:06.641Z,17.38
2017-08-14T03:33:47.219Z,17.34
2017-08-14T03:34:27.815Z,17.34
2017-08-14T03:35:08.377Z,17.34
2017-08-14T03:35:48.947Z,17.39
2017-08-14T03:36:29.530Z,17.34
2017-08-14T03:37:10.121Z,17.39
2017-08-14T03:37:50.693Z,17.34
2017-08-14T03:38:31.258Z,17.3
2017-08-14T03:39:11.845Z,17.34
2017-08-14T03:39:52.424Z,17.3
2017-08-14T03:40:32.997Z,17.34
2017-08-14T03:41:13.582Z,17.39
2017-08-14T03:41:54.161Z,17.39
2017-08-14T03:42:34.747Z,17.44
2017-08-14T03:43:15.317Z,17.39
2017-08-14T03:43:55.916Z,17.34
2017-08-14T03:44:36.480Z,17.36
2017-08-14T03:45:17.065Z,17.31
2017-08-14T03:45:57.618Z,17.39
2017-08-14T03:46:38.195Z,17.41
2017-08-14T03:47:18.754Z,17.34
2017-08-14T03:47:59.336Z,17.29
2017-08-14T03:48:39.913Z,17.24
2017-08-14T03:49:20.477Z,17.3
2017-08-14T03:50:01.066Z,17.24
2017-08-14T03:50:41.669Z,17.22
2017-08-14T03:51:22.254Z,17.26
2017-08-14T03:52:02.884Z,17.31
2017-08-14T03:52:43.456Z,17.29
2017-08-14T03:53:24.023Z,17.34
2017-08-14T03:54:04.615Z,17.23
2017-08-14T03:54:45.189Z,17.29
2017-08-14T03:55:25.781Z,17.16
2017-08-14T03:56:06.346Z,17.2
2017-08-14T03:56:46.925Z,17.26
2017-08-14T03:57:27.496Z,17.22
2017-08-14T03:58:08.049Z,17.3
2017-08-14T03:58:48.617Z,17.34
2017-08-14T03:59:29.182Z,17.24
2017-08-14T04:00:09.758Z,17.19
2017-08-14T04:00:50.352Z,17.26
2017-08-14T04:01:30.922Z,17.3
2017-08-14T04:02:11.491Z,17.3
2017-08-14T04:02:52.056Z,17.29
2017-08-14T04:03:32.648Z,17.24
2017-08-14T04:04:13.229Z,17.27
2017-08-14T04:04:53.799Z,17.26
2017-08-14T04:05:34.373Z,17.3
2017-08-14T04:06:14.946Z,17.29
2017-08-14T04:06:55.521Z,17.24
2017-08-14T04:07:36.084Z,17.24
2017-08-14T04:08:16.653Z,17.31
2017-08-14T04:08:57.227Z,17.29
2017-08-14T04:09:37.805Z,17.34
2017-08-14T04:10:18.377Z,17.3
2017-08-14T04:10:58.948Z,17.27
2017-08-14T04:11:39.527Z,17.26
2017-08-14T04:12:20.110Z,17.31
2017-08-14T04:13:00.684Z,17.24
2017-08-14T04:13:41.288Z,17.26
2017-08-14T04:14:21.862Z,17.26
2017-08-14T04:15:02.437Z,17.29
2017-08-14T04:15:43.053Z,17.19
2017-08-14T04:16:23.631Z,17.23
2017-08-14T04:17:04.236Z,17.24
2017-08-14T04:17:44.948Z,17.27
2017-08-14T04:18:25.594Z,17.22
2017-08-14T04:19:06.162Z,17.23
2017-08-14T04:19:46.741Z,17.16
2017-08-14T04:20:27.317Z,17.26
2017-08-14T04:21:07.887Z,17.26
2017-08-14T04:21:48.478Z,17.19
2017-08-14T04:22:29.048Z,17.31
2017-08-14T04:23:09.629Z,17.36
2017-08-14T04:23:50.217Z,17.33
2017-08-14T04:24:30.783Z,17.33
2017-08-14T04:25:11.352Z,17.27
2017-08-14T04:25:51.964Z,17.34
2017-08-14T04:26:32.549Z,17.3
2017-08-14T04:27:13.134Z,17.31
2017-08-14T04:27:53.719Z,17.38
2017-08-14T04:28:34.331Z,17.36
2017-08-14T04:29:14.899Z,17.27
2017-08-14T04:29:55.514Z,17.34
2017-08-14T04:30:36.103Z,17.38
2017-08-14T04:31:16.684Z,17.33
2017-08-14T04:31:57.291Z,17.33
2017-08-14T04:32:37.844Z,17.38
2017-08-14T04:33:18.413Z,17.34
2017-08-14T04:33:58.984Z,17.36
2017-08-14T04:34:39.558Z,17.31
2017-08-14T04:35:20.129Z,17.36
2017-08-14T04:36:00.698Z,17.36
2017-08-14T04:36:41.290Z,17.34
2017-08-14T04:37:21.898Z,17.36
2017-08-14T04:38:02.500Z,17.36
2017-08-14T04:38:43.072Z,17.38
2017-08-14T04:39:23.660Z,17.34
2017-08-14T04:40:04.223Z,17.31
2017-08-14T04:40:44.809Z,17.39
2017-08-14T04:41:25.379Z,17.41
2017-08-14T04:42:05.965Z,17.42
2017-08-14T04:42:46.537Z,17.45
2017-08-14T04:43:27.109Z,17.45
2017-08-14T04:44:07.697Z,17.51
2017-08-14T04:44:48.272Z,17.51
2017-08-14T04:45:28.842Z,17.45
2017-08-14T04:46:09.415Z,17.52
2017-08-14T04:46:49.983Z,17.48
2017-08-14T04:47:30.577Z,17.56
2017-08-14T04:48:11.149Z,17.44
2017-08-14T04:48:51.719Z,17.51
2017-08-14T04:49:32.331Z,17.46
2017-08-14T04:50:12.932Z,17.51
2017-08-14T04:50:53.513Z,17.52
2017-08-14T04:51:34.111Z,17.49
2017-08-14T04:52:14.684Z,17.49
2017-08-14T04:52:55.280Z,17.45
2017-08-14T04:53:35.849Z,17.54
2017-08-14T04:54:16.457Z,17.59
2017-08-14T04:54:57.030Z,17.51
2017-08-14T04:55:37.604Z,17.56
2017-08-14T04:56:18.193Z,17.59
2017-08-14T04:56:58.780Z,17.57
2017-08-14T04:57:39.362Z,17.59
2017-08-14T04:58:19.923Z,17.59
2017-08-14T04:59:00.497Z,17.68
2017-08-14T04:59:41.075Z,17.56
2017-08-14T05:00:21.655Z,17.65
2017-08-14T05:01:02.215Z,17.56
2017-08-14T05:01:42.789Z,17.6
2017-08-14T05:02:23.361Z,17.59
2017-08-14T05:03:03.943Z,17.63
2017-08-14T05:03:44.507Z,17.64
2017-08-14T05:04:25.077Z,17.65
2017-08-14T05:05:05.666Z,17.65
2017-08-14T05:05:46.250Z,17.6
2017-08-14T05:06:26.834Z,17.65
2017-08-14T05:07:07.424Z,17.63
2017-08-14T05:07:47.979Z,17.67
2017-08-14T05:08:28.545Z,17.7
2017-08-14T05:09:09.119Z,17.52
2017-08-14T05:09:49.733Z,17.65
2017-08-14T05:10:30.308Z,17.72
2017-08-14T05:11:10.878Z,17.64
2017-08-14T05:11:51.452Z,17.67
2017-08-14T05:12:32.009Z,17.71
2017-08-14T05:13:12.568Z,17.67
2017-08-14T05:13:53.155Z,17.65
2017-08-14T05:14:33.719Z,17.68
2017-08-14T05:15:14.290Z,17.72
2017-08-14T05:15:54.905Z,17.67
2017-08-14T05:16:35.472Z,17.63
2017-08-14T05:17:16.036Z,17.71
2017-08-14T05:17:56.615Z,17.65
2017-08-14T05:18:37.192Z,17.74
2017-08-14T05:19:17.775Z,17.74
2017-08-14T05:19:58.323Z,17.78
2017-08-14T05:20:38.903Z,17.78
2017-08-14T05:21:19.493Z,17.71
2017-08-14T05:22:00.073Z,17.74
2017-08-14T05:22:40.644Z,17.74
2017-08-14T05:23:21.225Z,17.74
2017-08-14T05:24:01.818Z,17.71
2017-08-14T05:24:42.375Z,17.78
2017-08-14T05:25:22.960Z,17.74
2017-08-14T05:26:03.544Z,17.68
2017-08-14T05:26:44.114Z,17.71
2017-08-14T05:27:24.677Z,17.83
2017-08-14T05:28:05.252Z,17.74
2017-08-14T05:28:45.856Z,17.76
2017-08-14T05:29:26.438Z,17.71
2017-08-14T05:30:07.006Z,17.78
2017-08-14T05:30:47.632Z,17.72
2017-08-14T05:31:28.201Z,17.74
2017-08-14T05:32:08.775Z,17.72
2017-08-14T05:32:49.368Z,17.74
2017-08-14T05:33:29.938Z,17.74
2017-08-14T05:34:10.530Z,17.72
2017-08-14T05:34:51.121Z,17.79
2017-08-14T05:35:31.721Z,17.74
2017-08-14T05:36:12.369Z,17.78
2017-08-14T05:36:52.929Z,17.76
2017-08-14T05:37:33.512Z,17.76
2017-08-14T05:38:14.082Z,17.72
2017-08-14T05:38:54.672Z,17.74
2017-08-14T05:39:35.259Z,17.72
2017-08-14T05:40:15.834Z,17.74
2017-08-14T05:40:56.414Z,17.72
2017-08-14T05:41:36.982Z,17.85
2017-08-14T05:42:17.547Z,17.85
2017-08-14T05:42:58.114Z,17.85
2017-08-14T05:43:38.680Z,17.76
2017-08-14T05:44:19.257Z,17.85
2017-08-14T05:44:59.856Z,17.83
2017-08-14T05:45:40.465Z,17.9
2017-08-14T05:46:21.031Z,17.82
2017-08-14T05:47:01.595Z,17.89
2017-08-14T05:47:42.182Z,17.87
2017-08-14T05:48:22.747Z,17.94
2017-08-14T05:49:03.332Z,17.86
2017-08-14T05:49:43.895Z,17.87
2017-08-14T05:50:24.489Z,17.95
2017-08-14T05:51:05.069Z,17.92
2017-08-14T05:51:45.649Z,17.92
2017-08-14T05:52:26.245Z,17.98
2017-08-14T05:53:06.828Z,17.92
2017-08-14T05:53:47.392Z,17.98
2017-08-14T05:54:27.961Z,17.98
2017-08-14T05:55:08.534Z,18.01
2017-08-14T05:55:49.138Z,18.08
2017-08-14T05:56:29.718Z,18.13
2017-08-14T05:57:10.296Z,18.11
2017-08-14T05:57:50.882Z,18.2
2017-08-14T05:58:31.445Z,18.19
2017-08-14T05:59:12.023Z,18.23
2017-08-14T05:59:52.611Z,18.28
2017-08-14T06:00:33.193Z,18.34
2017-08-14T06:01:13.761Z,18.41
2017-08-14T06:01:54.331Z,18.34
2017-08-14T06:02:34.904Z,18.47
2017-08-14T06:03:15.474Z,18.5
2017-08-14T06:03:57.756Z,18.65
2017-08-14T06:04:38.313Z,18.7
2017-08-14T06:05:18.881Z,18.68
2017-08-14T06:05:59.455Z,18.77
2017-08-14T06:06:40.030Z,18.84
2017-08-14T06:07:20.604Z,18.81
2017-08-14T06:08:01.160Z,18.98
2017-08-14T06:08:41.737Z,19.07
2017-08-14T06:09:22.316Z,19.02
2017-08-14T06:10:02.916Z,19.14
2017-08-14T06:10:43.500Z,19.15
2017-08-14T06:11:24.081Z,19.22
2017-08-14T06:12:04.663Z,19.33
2017-08-14T06:12:45.255Z,19.29
2017-08-14T06:13:25.834Z,19.36
2017-08-14T06:14:06.420Z,19.33
2017-08-14T06:14:46.993Z,19.51
2017-08-14T06:15:27.563Z,19.55
2017-08-14T06:16:08.136Z,19.56
2017-08-14T06:16:48.742Z,19.59
2017-08-14T06:17:29.317Z,19.59
2017-08-14T06:18:09.895Z,19.67
2017-08-14T06:18:50.482Z,19.76
2017-08-14T06:19:31.085Z,19.76
2017-08-14T06:20:11.643Z,19.84
2017-08-14T06:20:52.214Z,19.84
2017-08-14T06:21:32.800Z,19.94
2017-08-14T06:22:13.374Z,20.09
2017-08-14T06:22:53.957Z,20.11
2017-08-14T06:23:34.558Z,20.31
2017-08-14T06:24:15.157Z,20.37
2017-08-14T06:24:55.776Z,20.47
2017-08-14T06:25:36.352Z,20.51
2017-08-14T06:26:16.933Z,20.63
2017-08-14T06:26:57.500Z,20.78
2017-08-14T06:27:38.075Z,20.82
2017-08-14T06:28:18.652Z,20.95
2017-08-14T06:28:59.242Z,21.06
2017-08-14T06:29:39.812Z,21.15
2017-08-14T06:30:20.393Z,21.25
2017-08-14T06:31:00.980Z,21.3
2017-08-14T06:31:41.560Z,21.37
2017-08-14T06:32:22.150Z,21.46
2017-08-14T06:33:02.724Z,21.5
2017-08-14T06:33:43.314Z,21.48
2017-08-14T06:34:23.897Z,21.66
2017-08-14T06:35:04.496Z,21.62
2017-08-14T06:35:45.085Z,21.79
2017-08-14T06:36:25.670Z,21.93
2017-08-14T06:37:06.273Z,21.92
2017-08-14T06:37:46.840Z,22.08
2017-08-14T06:38:27.463Z,22.17
2017-08-14T06:39:08.042Z,22.25
2017-08-14T06:39:48.628Z,22.38
2017-08-14T06:40:29.216Z,22.39
2017-08-14T06:41:09.809Z,22.47
2017-08-14T06:41:50.390Z,22.5
2017-08-14T06:42:30.970Z,22.5
2017-08-14T06:43:11.550Z,22.63
2017-08-14T06:43:52.178Z,22.73
2017-08-14T06:44:32.765Z,22.78
2017-08-14T06:45:13.333Z,22.84
2017-08-14T06:45:53.926Z,22.94
2017-08-14T06:46:34.512Z,22.99
2017-08-14T06:47:15.175Z,23.09
2017-08-14T06:47:55.763Z,23.13
2017-08-14T06:48:36.362Z,23.12
2017-08-14T06:49:16.956Z,23.18
2017-08-14T06:49:57.542Z,23.18
2017-08-14T06:50:38.125Z,23.31
2017-08-14T06:51:18.694Z,23.37
2017-08-14T06:51:59.303Z,23.34
2017-08-14T06:52:39.880Z,23.23
2017-08-14T06:53:20.460Z,23.31
2017-08-14T06:54:01.051Z,23.36
2017-08-14T06:54:41.625Z,23.32
2017-08-14T06:55:22.211Z,23.36
2017-08-14T06:56:02.834Z,23.31
2017-08-14T06:56:43.423Z,23.39
2017-08-14T06:57:24.016Z,23.51
2017-08-14T06:58:04.601Z,23.59
2017-08-14T06:58:45.179Z,23.59
2017-08-14T06:59:25.763Z,23.62
2017-08-14T07:00:06.338Z,23.77
2017-08-14T07:00:46.925Z,23.78
2017-08-14T07:01:27.502Z,23.87
2017-08-14T07:02:08.098Z,23.96
2017-08-14T07:02:48.681Z,23.96
2017-08-14T07:03:29.273Z,24.03
2017-08-14T07:04:09.858Z,24.1
2017-08-14T07:04:50.480Z,24.16
2017-08-14T07:05:31.056Z,24.16
2017-08-14T07:06:11.643Z,24.21
2017-08-14T07:06:52.231Z,24.21
2017-08-14T07:07:32.812Z,24.2
2017-08-14T07:08:13.414Z,24.21
2017-08-14T07:08:54.003Z,24.24
2017-08-14T07:09:34.587Z,24.28
2017-08-14T07:10:15.172Z,24.28
2017-08-14T07:10:55.725Z,24.4
2017-08-14T07:11:36.323Z,24.4
2017-08-14T07:12:16.927Z,24.55
2017-08-14T07:12:57.539Z,24.54
2017-08-14T07:13:38.125Z,24.51
2017-08-14T07:14:18.737Z,24.51
2017-08-14T07:14:59.351Z,24.63
2017-08-14T07:15:39.927Z,24.51
2017-08-14T07:16:20.506Z,24.55
2017-08-14T07:17:01.093Z,24.55
2017-08-14T07:17:41.684Z,24.58
2017-08-14T07:18:22.260Z,24.58
2017-08-14T07:19:02.852Z,24.6
2017-08-14T07:19:43.445Z,24.66
2017-08-14T07:20:24.022Z,24.7
2017-08-14T07:21:04.610Z,24.78
2017-08-14T07:21:45.198Z,24.85
2017-08-14T07:22:25.770Z,24.84
2017-08-14T07:23:06.341Z,24.93
2017-08-14T07:23:46.965Z,24.91
2017-08-14T07:24:27.540Z,24.99
2017-08-14T07:25:08.141Z,25.04
2017-08-14T07:25:48.715Z,25.04
2017-08-14T07:26:29.311Z,25.11
2017-08-14T07:27:09.890Z,25.11
2017-08-14T07:27:50.470Z,25.1
2017-08-14T07:28:31.076Z,25.13
2017-08-14T07:29:11.672Z,25.17
2017-08-14T07:29:52.259Z,25.23
2017-08-14T07:30:32.828Z,25.26
2017-08-14T07:31:13.422Z,25.17
2017-08-14T07:31:54.003Z,25.21
2017-08-14T07:32:34.580Z,25.32
2017-08-14T07:33:15.157Z,25.33
2017-08-14T07:33:55.747Z,25.33
2017-08-14T07:34:36.318Z,25.33
2017-08-14T07:35:16.909Z,25.33
2017-08-14T07:35:57.503Z,25.28
2017-08-14T07:36:38.084Z,25.43
2017-08-14T07:37:18.678Z,25.38
2017-08-14T07:37:59.252Z,25.44
2017-08-14T07:38:39.837Z,25.36
2017-08-14T07:39:20.416Z,25.43
2017-08-14T07:40:01.011Z,25.46
2017-08-14T07:40:41.613Z,25.46
2017-08-14T07:41:22.177Z,25.43
2017-08-14T07:42:02.759Z,25.44
2017-08-14T07:42:43.331Z,25.55
2017-08-14T07:43:23.929Z,25.53
2017-08-14T07:44:04.516Z,25.58
2017-08-14T07:44:45.086Z,25.62
2017-08-14T07:45:25.682Z,25.68
2017-08-14T07:46:06.271Z,25.7
2017-08-14T07:46:46.850Z,25.73
2017-08-14T07:47:27.439Z,25.73
2017-08-14T07:48:08.026Z,25.73
2017-08-14T07:48:48.607Z,25.72
2017-08-14T07:49:29.215Z,25.69
2017-08-14T07:50:09.811Z,25.72
2017-08-14T07:50:50.389Z,25.77
2017-08-14T07:51:31.015Z,25.72
2017-08-14T07:52:11.605Z,25.69
2017-08-14T07:52:52.201Z,25.77
2017-08-14T07:53:32.798Z,25.72
2017-08-14T07:54:13.378Z,25.87
2017-08-14T07:54:53.986Z,25.81
2017-08-14T07:55:34.570Z,25.73
2017-08-14T07:56:15.156Z,25.68
2017-08-14T07:56:55.729Z,25.66
2017-08-14T07:57:36.320Z,25.65
2017-08-14T07:58:16.891Z,25.66
2017-08-14T07:58:57.489Z,25.65
2017-08-14T07:59:38.075Z,25.65
2017-08-14T08:00:18.647Z,25.55
2017-08-14T08:00:59.238Z,25.54
2017-08-14T08:01:39.849Z,25.41
2017-08-14T08:02:20.428Z,25.4
2017-08-14T08:03:01.018Z,25.47
2017-08-14T08:03:41.593Z,25.38
2017-08-14T08:04:22.189Z,25.44
2017-08-14T08:05:02.793Z,25.47
2017-08-14T08:05:43.381Z,25.46
2017-08-14T08:06:23.950Z,25.38
2017-08-14T08:07:04.568Z,25.41
2017-08-14T08:07:45.160Z,25.44
2017-08-14T08:08:25.753Z,25.44
2017-08-14T08:09:06.338Z,25.41
2017-08-14T08:09:46.921Z,25.43
2017-08-14T08:10:27.518Z,25.4
2017-08-14T08:11:08.122Z,25.41
2017-08-14T08:11:48.742Z,25.48
2017-08-14T08:12:29.351Z,25.44
2017-08-14T08:13:09.948Z,25.53
2017-08-14T08:13:50.535Z,25.5
2017-08-14T08:14:31.128Z,25.53
2017-08-14T08:15:11.711Z,25.47
2017-08-14T08:15:52.281Z,25.44
2017-08-14T08:16:32.894Z,25.54
2017-08-14T08:17:13.492Z,25.54
2017-08-14T08:17:54.093Z,25.5
2017-08-14T08:18:34.691Z,25.47
2017-08-14T08:19:15.267Z,25.48
2017-08-14T08:19:55.859Z,25.6
2017-08-14T08:20:36.454Z,25.53
2017-08-14T08:21:17.051Z,25.48
2017-08-14T08:21:57.626Z,25.51
2017-08-14T08:22:38.207Z,25.47
2017-08-14T08:23:18.786Z,25.43
2017-08-14T08:23:59.366Z,25.35
2017-08-14T08:24:39.955Z,25.4
2017-08-14T08:25:20.590Z,25.4
2017-08-14T08:26:01.182Z,25.47
2017-08-14T08:26:41.752Z,25.38
2017-08-14T08:27:22.338Z,25.4
2017-08-14T08:28:02.912Z,25.4
2017-08-14T08:28:43.509Z,25.4
2017-08-14T08:29:24.092Z,25.33
2017-08-14T08:30:04.670Z,25.43
2017-08-14T08:30:45.236Z,25.43
2017-08-14T08:31:25.864Z,25.46
2017-08-14T08:32:06.463Z,25.48
2017-08-14T08:32:47.047Z,25.43
2017-08-14T08:33:27.631Z,25.55
2017-08-14T08:34:08.226Z,25.53
2017-08-14T08:34:48.796Z,25.65
2017-08-14T08:35:29.371Z,25.66
2017-08-14T08:36:09.959Z,25.68
2017-08-14T08:36:50.546Z,25.66
2017-08-14T08:37:31.138Z,25.68
2017-08-14T08:38:11.733Z,25.72
2017-08-14T08:38:52.303Z,25.65
2017-08-14T08:39:32.892Z,25.65
2017-08-14T08:40:13.458Z,25.63
2017-08-14T08:40:54.049Z,25.59
2017-08-14T08:41:34.630Z,25.53
2017-08-14T08:42:15.232Z,25.55
2017-08-14T08:42:55.824Z,25.51
2017-08-14T08:43:36.676Z,25.4